Time;durP1;ratioP1;P1;durP2;ratioP2;P2;SDS_P1;SDS_P2;PMS_P1;PMS_P2;Temp;Humidity;BMP_temperature;BMP_pressure;BME280_temperature;BME280_humidity;BME280_pressure;Samples;Min_cycle;Max_cycle;Signal;HPM_P1;HPM_P2
2022/05/12 00:01:46;;;;;;;;;;;18.80;98.40;;;;;;5061760;28;19935;-67
2022/05/12 00:04:14;;;;;;;;;;;18.80;98.10;;;;;;5053997;28;19927;-67
2022/05/12 00:06:41;;;;;;;;;;;18.80;97.80;;;;;;5061747;28;20204;-67
2022/05/12 00:09:07;;;;;;;;;;;18.80;97.70;;;;;;5064919;28;20216;-67
2022/05/12 00:11:34;;;;;;;;;;;18.80;97.50;;;;;;5066361;28;20125;-66
2022/05/12 00:14:00;;;;;;;;;;;18.90;97.10;;;;;;5065750;28;19921;-67
2022/05/12 00:16:27;;;;;;;;;;;18.80;97.20;;;;;;5065119;28;19935;-67
2022/05/12 00:18:54;;;;;;;;;;;18.90;97.00;;;;;;5065884;28;19921;-67
2022/05/12 00:21:22;;;;;;;;;;;18.90;96.90;;;;;;5065930;28;19928;-67
2022/05/12 00:23:56;;;;;;;;;;;18.90;96.40;;;;;;5066097;28;20147;-67
2022/05/12 00:26:22;;;;;;;;;;;19.00;96.40;;;;;;5052386;28;19935;-67
2022/05/12 00:28:49;;;;;;;;;;;19.00;96.50;;;;;;5062155;28;19920;-67
2022/05/12 00:31:16;;;;;;;;;;;19.00;96.30;;;;;;5064178;28;19927;-67
2022/05/12 00:33:42;;;;;;;;;;;19.00;95.90;;;;;;5064721;28;19921;-68
2022/05/12 00:36:09;;;;;;;;;;;19.00;96.00;;;;;;5069445;28;20211;-67
2022/05/12 00:38:37;;;;;;;;;;;19.10;96.20;;;;;;5075877;28;19921;-68
2022/05/12 00:41:03;;;;;;;;;;;19.10;96.10;;;;;;5081220;28;19924;-67
2022/05/12 00:43:35;;;;;;;;;;;19.10;96.20;;;;;;5075269;28;19924;-68
2022/05/12 00:46:02;;;;;;;;;;;19.10;97.00;;;;;;5079826;28;20234;-68
2022/05/12 00:48:29;;;;;;;;;;;19.10;97.00;;;;;;5085466;28;19927;-68
2022/05/12 00:50:55;;;;;;;;;;;19.10;97.30;;;;;;5085657;28;19920;-67
2022/05/12 00:53:22;;;;;;;;;;;19.10;96.30;;;;;;5085537;28;19928;-67
2022/05/12 00:55:51;;;;;;;;;;;19.20;96.60;;;;;;5048990;28;19943;-67
2022/05/12 00:58:20;;;;;;;;;;;19.20;96.90;;;;;;5052061;28;19927;-67
2022/05/12 01:00:46;;;;;;;;;;;19.20;97.10;;;;;;5061021;28;20119;-68
2022/05/12 01:03:15;;;;;;;;;;;19.20;97.20;;;;;;5064200;28;19984;-68
2022/05/12 01:05:42;;;;;;;;;;;19.20;97.60;;;;;;5059595;28;19943;-67
2022/05/12 01:08:10;;;;;;;;;;;19.10;96.50;;;;;;5066271;28;20179;-68
2022/05/12 01:10:39;;;;;;;;;;;19.20;96.80;;;;;;5065143;28;19921;-67
2022/05/12 01:13:07;;;;;;;;;;;19.20;96.80;;;;;;5064917;28;19952;-67
2022/05/12 01:15:34;;;;;;;;;;;19.20;96.80;;;;;;5064481;28;19929;-67
2022/05/12 01:18:01;;;;;;;;;;;19.20;96.90;;;;;;5063662;28;19928;-67
2022/05/12 01:20:27;;;;;;;;;;;19.20;97.00;;;;;;5076031;28;19928;-68
2022/05/12 01:22:56;;;;;;;;;;;19.20;97.20;;;;;;5074898;28;19927;-68
2022/05/12 01:25:27;;;;;;;;;;;19.20;97.50;;;;;;5067771;28;19929;-67
2022/05/12 01:27:53;;;;;;;;;;;19.20;97.40;;;;;;5063943;28;19927;-67
2022/05/12 01:30:21;;;;;;;;;;;19.20;97.80;;;;;;5065274;28;19921;-68
2022/05/12 01:32:48;;;;;;;;;;;19.20;97.90;;;;;;5059846;28;19929;-67
2022/05/12 01:35:16;;;;;;;;;;;19.10;97.80;;;;;;5059446;28;19927;-68
2022/05/12 01:37:43;;;;;;;;;;;19.10;97.70;;;;;;5070872;28;19924;-68
2022/05/12 01:40:11;;;;;;;;;;;19.00;97.70;;;;;;5070728;28;19921;-67
2022/05/12 01:42:39;;;;;;;;;;;19.00;97.50;;;;;;5063238;28;19927;-66
2022/05/12 01:45:07;;;;;;;;;;;19.10;97.80;;;;;;5064350;28;19920;-68
2022/05/12 01:47:34;;;;;;;;;;;19.00;97.50;;;;;;5063272;28;19971;-67
2022/05/12 01:50:01;;;;;;;;;;;19.00;97.80;;;;;;5063988;28;19920;-67
2022/05/12 01:52:27;;;;;;;;;;;19.00;97.70;;;;;;5068602;28;19925;-68
2022/05/12 01:54:54;;;;;;;;;;;18.90;97.80;;;;;;5081166;28;20216;-67
2022/05/12 01:57:22;;;;;;;;;;;18.90;97.80;;;;;;5065448;28;19928;-67
2022/05/12 01:59:50;;;;;;;;;;;18.90;98.00;;;;;;5044241;28;20124;-67
2022/05/12 02:02:17;;;;;;;;;;;18.90;98.00;;;;;;5051523;28;19929;-68
2022/05/12 02:04:44;;;;;;;;;;;18.90;98.20;;;;;;5052487;28;19944;-67
2022/05/12 02:07:10;;;;;;;;;;;18.80;98.30;;;;;;5043667;28;19921;-67
2022/05/12 02:09:37;;;;;;;;;;;18.80;98.40;;;;;;5051984;28;19928;-67
2022/05/12 02:12:04;;;;;;;;;;;18.70;98.70;;;;;;5063817;28;19921;-67
2022/05/12 02:14:31;;;;;;;;;;;18.70;99.00;;;;;;5050790;28;19952;-68
2022/05/12 02:16:59;;;;;;;;;;;18.70;99.40;;;;;;5043203;28;19975;-68
2022/05/12 02:19:27;;;;;;;;;;;18.60;99.70;;;;;;5043990;28;19921;-68
2022/05/12 02:21:54;;;;;;;;;;;18.70;99.90;;;;;;5043995;28;20005;-69
2022/05/12 02:24:21;;;;;;;;;;;18.60;99.90;;;;;;5060370;28;19924;-68
2022/05/12 02:26:47;;;;;;;;;;;18.60;99.90;;;;;;5062834;28;19995;-68
2022/05/12 02:29:14;;;;;;;;;;;18.50;99.90;;;;;;5050904;28;19936;-68
2022/05/12 02:31:41;;;;;;;;;;;18.50;99.90;;;;;;5043668;28;19921;-68
2022/05/12 02:34:08;;;;;;;;;;;18.50;99.90;;;;;;5053523;28;19947;-68
2022/05/12 02:36:35;;;;;;;;;;;18.40;99.90;;;;;;5074415;28;19921;-68
2022/05/12 02:39:02;;;;;;;;;;;18.30;99.90;;;;;;5064320;28;19921;-68
2022/05/12 02:41:28;;;;;;;;;;;18.20;99.90;;;;;;5072584;28;19927;-67
2022/05/12 02:43:55;;;;;;;;;;;18.10;99.90;;;;;;5061325;28;19928;-68
2022/05/12 02:46:21;;;;;;;;;;;18.10;99.90;;;;;;5042793;28;20027;-68
2022/05/12 02:48:50;;;;;;;;;;;18.00;99.90;;;;;;5067362;28;19920;-68
2022/05/12 02:51:18;;;;;;;;;;;17.90;99.90;;;;;;5073871;28;19927;-67
2022/05/12 02:53:44;;;;;;;;;;;17.90;99.90;;;;;;5063154;28;19921;-68
2022/05/12 02:56:11;;;;;;;;;;;17.80;99.90;;;;;;5071945;28;19948;-68
2022/05/12 02:58:37;;;;;;;;;;;17.90;99.90;;;;;;5053401;28;20231;-67
2022/05/12 03:01:05;;;;;;;;;;;18.00;99.90;;;;;;5061763;28;19920;-67
2022/05/12 03:03:32;;;;;;;;;;;18.00;99.90;;;;;;5051398;28;19959;-67
2022/05/12 03:05:58;;;;;;;;;;;18.10;99.90;;;;;;5058425;28;19920;-68
2022/05/12 03:08:26;;;;;;;;;;;18.00;99.90;;;;;;5062944;28;19928;-67
2022/05/12 03:10:53;;;;;;;;;;;18.10;99.90;;;;;;5059765;28;19921;-67
2022/05/12 03:13:21;;;;;;;;;;;18.10;99.90;;;;;;5043161;28;19959;-67
2022/05/12 03:15:48;;;;;;;;;;;18.10;99.90;;;;;;5045499;28;19929;-67
2022/05/12 03:18:14;;;;;;;;;;;18.10;99.90;;;;;;5062061;28;20124;-68
2022/05/12 03:20:41;;;;;;;;;;;18.10;99.90;;;;;;5065975;28;19921;-68
2022/05/12 03:23:08;;;;;;;;;;;18.10;99.90;;;;;;5072727;28;19924;-68
2022/05/12 03:25:36;;;;;;;;;;;18.00;99.90;;;;;;5071962;28;19927;-68
2022/05/12 03:28:02;;;;;;;;;;;18.00;99.90;;;;;;5071723;28;19921;-67
2022/05/12 03:30:29;;;;;;;;;;;18.00;99.90;;;;;;5083147;28;19921;-68
2022/05/12 03:32:56;;;;;;;;;;;18.00;99.90;;;;;;5083048;28;19920;-67
2022/05/12 03:35:23;;;;;;;;;;;18.00;99.90;;;;;;5047950;28;19921;-67
2022/05/12 03:37:49;;;;;;;;;;;18.00;99.90;;;;;;5060144;28;19929;-67
2022/05/12 03:40:18;;;;;;;;;;;17.90;99.90;;;;;;5046417;28;20171;-67
2022/05/12 03:42:46;;;;;;;;;;;17.90;99.90;;;;;;5051599;28;19959;-68
2022/05/12 03:45:12;;;;;;;;;;;17.80;99.90;;;;;;5066227;28;19928;-67
2022/05/12 03:47:39;;;;;;;;;;;17.80;99.90;;;;;;5066207;28;19956;-67
2022/05/12 03:50:08;;;;;;;;;;;17.70;99.90;;;;;;5066311;28;19952;-68
2022/05/12 03:52:35;;;;;;;;;;;17.80;99.90;;;;;;5066546;28;20215;-67
2022/05/12 03:55:02;;;;;;;;;;;17.80;99.90;;;;;;5066738;28;19943;-67
2022/05/12 03:57:29;;;;;;;;;;;17.70;99.90;;;;;;5051780;28;20120;-68
2022/05/12 03:59:57;;;;;;;;;;;17.70;99.90;;;;;;5046525;28;20213;-68
2022/05/12 04:02:24;;;;;;;;;;;17.70;99.90;;;;;;5062436;28;19929;-67
2022/05/12 04:04:51;;;;;;;;;;;17.70;99.90;;;;;;5061419;28;20231;-67
2022/05/12 04:07:19;;;;;;;;;;;17.70;99.90;;;;;;5065924;28;19942;-68
2022/05/12 04:09:45;;;;;;;;;;;17.60;99.90;;;;;;5066441;28;19927;-67
2022/05/12 04:12:12;;;;;;;;;;;17.60;99.90;;;;;;5065692;28;19935;-68
2022/05/12 04:14:39;;;;;;;;;;;17.60;99.90;;;;;;5066317;28;19927;-68
2022/05/12 04:17:07;;;;;;;;;;;17.50;99.90;;;;;;5065456;28;20212;-68
2022/05/12 04:19:34;;;;;;;;;;;17.60;99.90;;;;;;5065451;28;20115;-67
2022/05/12 04:22:00;;;;;;;;;;;17.50;99.90;;;;;;5066143;28;19927;-68
2022/05/12 04:24:27;;;;;;;;;;;17.50;99.90;;;;;;5065213;28;19921;-67
2022/05/12 04:26:53;;;;;;;;;;;17.50;99.90;;;;;;5054636;28;19921;-67
2022/05/12 04:29:20;;;;;;;;;;;17.50;99.90;;;;;;5066457;28;19921;-67
2022/05/12 04:31:47;;;;;;;;;;;17.50;99.90;;;;;;5066338;28;19920;-67
2022/05/12 04:36:58;;;;;;;;;;;17.50;99.90;;;;;;5057014;28;19966;-70
2022/05/12 04:39:25;;;;;;;;;;;17.50;99.90;;;;;;5055192;28;19921;-67
2022/05/12 04:41:52;;;;;;;;;;;17.60;99.90;;;;;;5066231;28;19991;-67
2022/05/12 04:44:19;;;;;;;;;;;17.60;99.90;;;;;;5061434;28;19921;-67
2022/05/12 04:46:46;;;;;;;;;;;17.60;99.90;;;;;;5064823;28;19943;-65
2022/05/12 04:49:14;;;;;;;;;;;17.60;99.90;;;;;;5065828;28;19928;-66
2022/05/12 04:51:41;;;;;;;;;;;17.70;99.90;;;;;;5071803;28;19920;-65
2022/05/12 04:54:09;;;;;;;;;;;17.70;99.90;;;;;;5080620;28;19920;-65
2022/05/12 04:56:36;;;;;;;;;;;17.70;99.90;;;;;;5056572;28;19920;-66
2022/05/12 04:59:03;;;;;;;;;;;17.80;99.90;;;;;;5065639;28;19921;-66
2022/05/12 05:01:30;;;;;;;;;;;17.80;99.90;;;;;;5065769;28;19925;-67
2022/05/12 05:04:00;;;;;;;;;;;17.80;99.90;;;;;;5047949;28;20223;-67
2022/05/12 05:06:28;;;;;;;;;;;17.90;99.90;;;;;;5046865;28;20151;-67
2022/05/12 05:08:54;;;;;;;;;;;17.90;99.90;;;;;;5045598;28;19929;-66
2022/05/12 05:11:21;;;;;;;;;;;18.00;99.90;;;;;;5062619;28;19931;-64
2022/05/12 05:13:48;;;;;;;;;;;18.00;99.90;;;;;;5049180;28;19921;-65
2022/05/12 05:16:15;;;;;;;;;;;18.00;99.90;;;;;;5046338;28;19936;-64
2022/05/12 05:18:42;;;;;;;;;;;18.00;99.90;;;;;;5065044;28;19920;-65
2022/05/12 05:21:10;;;;;;;;;;;18.10;99.90;;;;;;5064204;28;19953;-65
2022/05/12 05:23:38;;;;;;;;;;;18.10;99.90;;;;;;5064328;28;19921;-65
2022/05/12 05:26:05;;;;;;;;;;;18.10;99.90;;;;;;5064013;28;19920;-65
2022/05/12 05:28:31;;;;;;;;;;;18.20;99.90;;;;;;5064647;28;19921;-65
2022/05/12 05:30:58;;;;;;;;;;;18.30;99.90;;;;;;5064305;28;19951;-65
2022/05/12 05:33:25;;;;;;;;;;;18.30;99.90;;;;;;5045621;28;19921;-64
2022/05/12 05:35:52;;;;;;;;;;;18.30;99.90;;;;;;5063949;28;20208;-65
2022/05/12 05:38:19;;;;;;;;;;;18.40;99.90;;;;;;5075321;22;19920;-91
2022/05/12 05:40:47;;;;;;;;;;;18.40;99.90;;;;;;5082844;28;19971;-91
2022/05/12 05:43:13;;;;;;;;;;;18.40;99.90;;;;;;5075582;28;19920;-91
2022/05/12 05:45:40;;;;;;;;;;;18.40;99.90;;;;;;5085500;28;19920;-91
2022/05/12 05:48:07;;;;;;;;;;;18.50;99.90;;;;;;5085798;28;20127;-89
2022/05/12 05:53:23;;;;;;;;;;;18.50;99.90;;;;;;5085552;28;19920;-88
2022/05/12 05:53:24;;;;;;;;;;;18.60;99.90;;;;;;5085609;28;20168;-89
2022/05/12 05:56:28;;;;;;;;;;;18.70;99.90;;;;;;5084997;28;19916;-89
2022/05/12 05:58:56;;;;;;;;;;;18.80;99.90;;;;;;5085647;28;19926;-89
2022/05/12 06:01:23;;;;;;;;;;;18.80;99.90;;;;;;5084504;28;19991;-89
2022/05/12 06:03:49;;;;;;;;;;;18.80;99.90;;;;;;5085033;28;19987;-88
2022/05/12 06:06:16;;;;;;;;;;;18.80;99.90;;;;;;5082947;28;20149;-89
2022/05/12 06:08:43;;;;;;;;;;;18.80;99.90;;;;;;5084160;28;19920;-89
2022/05/12 06:11:09;;;;;;;;;;;18.90;99.90;;;;;;5085011;28;20008;-89
2022/05/12 06:13:36;;;;;;;;;;;18.80;99.90;;;;;;5084785;28;19963;-89
2022/05/12 06:16:05;;;;;;;;;;;18.70;99.90;;;;;;5083890;28;19913;-89
2022/05/12 06:18:32;;;;;;;;;;;18.80;99.90;;;;;;5083108;28;19928;-91
2022/05/12 06:20:59;;;;;;;;;;;18.80;99.90;;;;;;5084600;28;19921;-91
2022/05/12 06:23:26;;;;;;;;;;;18.80;99.90;;;;;;5083595;28;20262;-91
2022/05/12 06:25:53;;;;;;;;;;;18.70;99.90;;;;;;5084138;28;20207;-90
2022/05/12 06:28:19;;;;;;;;;;;18.70;99.90;;;;;;5084010;28;19926;-90
2022/05/12 06:30:46;;;;;;;;;;;18.70;99.90;;;;;;5083548;28;19943;-90
2022/05/12 06:33:17;;;;;;;;;;;18.70;99.90;;;;;;5083955;28;19981;-90
2022/05/12 06:35:44;;;;;;;;;;;18.60;99.90;;;;;;5083249;28;19920;-89
2022/05/12 06:38:11;;;;;;;;;;;18.50;99.90;;;;;;5085090;28;20162;-87
2022/05/12 06:40:38;;;;;;;;;;;18.50;99.90;;;;;;5083795;28;19983;-87
2022/05/12 06:43:05;;;;;;;;;;;18.50;99.90;;;;;;5084034;28;19920;-87
2022/05/12 06:45:31;;;;;;;;;;;18.50;99.90;;;;;;5083574;28;20158;-87
2022/05/12 06:47:58;;;;;;;;;;;18.40;99.90;;;;;;5082939;28;20022;-87
2022/05/12 06:50:28;;;;;;;;;;;18.40;99.90;;;;;;5084408;28;19924;-87
2022/05/12 06:52:55;;;;;;;;;;;18.30;99.90;;;;;;5083935;28;19926;-87
2022/05/12 06:55:21;;;;;;;;;;;18.40;99.90;;;;;;5083694;28;19992;-87
2022/05/12 06:57:48;;;;;;;;;;;18.40;99.90;;;;;;5083682;28;19944;-86
2022/05/12 07:00:16;;;;;;;;;;;18.30;99.90;;;;;;5083421;28;20207;-87
2022/05/12 07:02:44;;;;;;;;;;;18.30;99.90;;;;;;5081700;28;20207;-86
2022/05/12 07:05:11;;;;;;;;;;;18.30;99.90;;;;;;5083224;28;20294;-87
2022/05/12 07:07:40;;;;;;;;;;;18.30;99.90;;;;;;5083590;28;19920;-87
2022/05/12 07:10:07;;;;;;;;;;;18.40;99.90;;;;;;5083479;28;19920;-87
2022/05/12 07:12:34;;;;;;;;;;;18.60;99.90;;;;;;5082809;28;19948;-87
2022/05/12 07:15:01;;;;;;;;;;;18.60;99.90;;;;;;5095867;22;19924;-69
2022/05/12 07:17:28;;;;;;;;;;;18.80;99.90;;;;;;5082445;28;19920;-69
2022/05/12 07:26:35;;;;;;;;;;;18.80;99.90;;;;;;5083243;28;19927;-69
2022/05/12 07:28:14;;;;;;;;;;;18.90;99.90;;;;;;5082999;28;20239;-69
2022/05/12 07:33:25;;;;;;;;;;;18.80;99.90;;;;;;5082964;28;19935;-68
2022/05/12 07:35:51;;;;;;;;;;;18.80;99.90;;;;;;5082381;28;19926;-68
2022/05/12 07:38:20;;;;;;;;;;;18.80;99.90;;;;;;5083187;28;19920;-68
2022/05/12 07:40:46;;;;;;;;;;;18.80;99.90;;;;;;5081152;28;19921;-68
2022/05/12 07:43:13;;;;;;;;;;;18.80;99.90;;;;;;5083234;28;19927;-69
2022/05/12 07:45:40;;;;;;;;;;;18.80;99.90;;;;;;5082010;28;19929;-68
2022/05/12 07:48:07;;;;;;;;;;;18.80;99.90;;;;;;5082692;28;20219;-69
2022/05/12 07:50:34;;;;;;;;;;;18.80;99.90;;;;;;5083023;28;19929;-68
2022/05/12 07:53:00;;;;;;;;;;;18.80;99.90;;;;;;5082694;28;19926;-68
2022/05/12 07:55:28;;;;;;;;;;;18.80;99.90;;;;;;5082214;28;19927;-69
2022/05/12 07:57:55;;;;;;;;;;;18.90;99.90;;;;;;5083040;28;20033;-68
2022/05/12 08:00:21;;;;;;;;;;;19.00;99.90;;;;;;5083021;28;19927;-69
2022/05/12 08:02:49;;;;;;;;;;;19.10;99.90;;;;;;5082658;28;20203;-69
2022/05/12 08:05:15;;;;;;;;;;;19.20;99.90;;;;;;5082180;28;20207;-69
2022/05/12 08:07:43;;;;;;;;;;;19.20;99.90;;;;;;5082926;28;19924;-69
2022/05/12 08:10:10;;;;;;;;;;;19.30;99.90;;;;;;5082632;28;19962;-68
2022/05/12 08:12:38;;;;;;;;;;;19.30;99.90;;;;;;5082933;28;19924;-68
2022/05/12 08:15:05;;;;;;;;;;;19.30;99.90;;;;;;5082422;28;19927;-68
2022/05/12 08:17:32;;;;;;;;;;;19.20;99.90;;;;;;5081929;28;19927;-69
2022/05/12 08:19:58;;;;;;;;;;;19.20;99.90;;;;;;5082650;28;19920;-69
2022/05/12 08:22:25;;;;;;;;;;;19.30;99.90;;;;;;5082966;28;19920;-68
2022/05/12 08:24:53;;;;;;;;;;;19.30;99.90;;;;;;5077345;28;19983;-68
2022/05/12 08:27:20;;;;;;;;;;;19.30;99.90;;;;;;5082137;28;20204;-68
2022/05/12 08:29:47;;;;;;;;;;;19.40;99.90;;;;;;5084154;28;20174;-71
2022/05/12 08:32:14;;;;;;;;;;;19.50;99.90;;;;;;5086172;28;19935;-68
2022/05/12 08:34:41;;;;;;;;;;;19.60;99.90;;;;;;5085891;28;19920;-68
2022/05/12 08:37:09;;;;;;;;;;;19.80;99.90;;;;;;5085589;28;19984;-68
2022/05/12 08:39:36;;;;;;;;;;;19.90;99.90;;;;;;5085884;28;20204;-68
2022/05/12 08:42:06;;;;;;;;;;;19.90;99.90;;;;;;5085883;28;19920;-68
2022/05/12 08:44:36;;;;;;;;;;;19.80;99.90;;;;;;5085766;28;19921;-68
2022/05/12 08:47:05;;;;;;;;;;;19.80;99.90;;;;;;5085153;28;19920;-69
2022/05/12 08:49:33;;;;;;;;;;;19.80;99.90;;;;;;5085623;28;20208;-68
2022/05/12 08:52:05;;;;;;;;;;;19.90;99.90;;;;;;5086020;28;19926;-69
2022/05/12 08:54:35;;;;;;;;;;;19.90;99.90;;;;;;5085862;28;20116;-68
2022/05/12 08:57:03;;;;;;;;;;;20.00;99.90;;;;;;5084474;28;19984;-69
2022/05/12 08:59:31;;;;;;;;;;;20.10;99.90;;;;;;5085242;28;20230;-68
2022/05/12 09:02:03;;;;;;;;;;;20.20;99.90;;;;;;5084953;28;19925;-68
2022/05/12 09:04:48;;;;;;;;;;;20.20;99.90;;;;;;5085256;28;20123;-68
2022/05/12 09:07:18;;;;;;;;;;;20.20;99.90;;;;;;5084475;28;19962;-68
2022/05/12 09:09:49;;;;;;;;;;;20.20;99.90;;;;;;5085280;28;20131;-69
2022/05/12 09:12:22;;;;;;;;;;;20.20;99.90;;;;;;5085390;28;19934;-68
2022/05/12 09:14:52;;;;;;;;;;;20.20;99.90;;;;;;5085323;28;20131;-68
2022/05/12 09:17:20;;;;;;;;;;;20.10;99.90;;;;;;5084612;28;20119;-71
2022/05/12 09:19:48;;;;;;;;;;;20.30;99.90;;;;;;5085289;28;19962;-70
2022/05/12 09:22:23;;;;;;;;;;;20.30;99.90;;;;;;5085459;28;19933;-68
2022/05/12 09:24:50;;;;;;;;;;;20.20;99.90;;;;;;5085241;28;20172;-68
2022/05/12 09:27:17;;;;;;;;;;;20.30;99.90;;;;;;5080563;28;19987;-68
2022/05/12 09:29:46;;;;;;;;;;;20.40;99.90;;;;;;5085412;28;19924;-68
2022/05/12 09:32:17;;;;;;;;;;;20.50;99.90;;;;;;5084778;28;19924;-71
2022/05/12 09:34:46;;;;;;;;;;;20.50;99.90;;;;;;5084888;28;19920;-71
2022/05/12 09:37:19;;;;;;;;;;;20.60;99.90;;;;;;5084375;28;20008;-70
2022/05/12 09:39:47;;;;;;;;;;;20.60;99.90;;;;;;5085285;28;19920;-71
2022/05/12 09:42:18;;;;;;;;;;;20.70;99.90;;;;;;5083976;28;20226;-68
2022/05/12 09:44:52;;;;;;;;;;;20.70;99.90;;;;;;5085033;28;19929;-71
2022/05/12 09:47:19;;;;;;;;;;;20.80;99.90;;;;;;5084404;28;19920;-68
2022/05/12 09:49:46;;;;;;;;;;;20.80;99.90;;;;;;5084910;28;19920;-68
2022/05/12 09:52:24;;;;;;;;;;;21.00;99.90;;;;;;5084158;28;19958;-71
2022/05/12 09:55:08;;;;;;;;;;;21.10;99.90;;;;;;5080649;28;19921;-68
2022/05/12 09:57:35;;;;;;;;;;;21.30;99.90;;;;;;5082279;28;19920;-68
2022/05/12 10:00:07;;;;;;;;;;;21.50;99.90;;;;;;5083854;28;19920;-71
2022/05/12 10:08:16;;;;;;;;;;;21.70;99.90;;;;;;5083672;28;20194;-69
2022/05/12 10:10:42;;;;;;;;;;;21.80;99.90;;;;;;5084150;28;19987;-69
2022/05/12 10:13:16;;;;;;;;;;;21.60;99.90;;;;;;5070785;28;19921;-69
2022/05/12 10:15:43;;;;;;;;;;;21.40;99.90;;;;;;5063052;28;19921;-69
2022/05/12 10:18:16;;;;;;;;;;;21.20;99.90;;;;;;5063831;28;20124;-69
2022/05/12 10:20:45;;;;;;;;;;;21.10;99.90;;;;;;5063877;28;19921;-68
2022/05/12 10:23:17;;;;;;;;;;;21.00;99.90;;;;;;5063984;28;20204;-69
2022/05/12 10:25:56;;;;;;;;;;;20.90;99.90;;;;;;5076490;28;20246;-69
2022/05/12 10:28:28;;;;;;;;;;;21.00;99.90;;;;;;5083384;28;19925;-69
2022/05/12 10:31:00;;;;;;;;;;;21.20;99.90;;;;;;5063543;28;19951;-69
2022/05/12 10:33:33;;;;;;;;;;;21.50;99.90;;;;;;5065879;28;19925;-69
2022/05/12 10:36:05;;;;;;;;;;;21.60;99.90;;;;;;5082970;28;19920;-69
2022/05/12 10:38:39;;;;;;;;;;;21.50;99.90;;;;;;5083202;28;19935;-69
2022/05/12 10:41:09;;;;;;;;;;;21.50;99.90;;;;;;5081299;28;19928;-69
2022/05/12 10:43:57;;;;;;;;;;;21.50;99.90;;;;;;5083387;28;19926;-69
2022/05/12 10:46:30;;;;;;;;;;;21.60;99.90;;;;;;5082029;28;19921;-69
2022/05/12 10:48:59;;;;;;;;;;;21.70;99.90;;;;;;5083604;28;19920;-69
2022/05/12 10:51:29;;;;;;;;;;;21.90;99.90;;;;;;5083764;28;19980;-69
2022/05/12 10:54:09;;;;;;;;;;;21.90;99.90;;;;;;5083019;28;20204;-69
2022/05/12 10:56:41;;;;;;;;;;;21.80;99.90;;;;;;5082844;28;20119;-69
2022/05/12 10:59:24;;;;;;;;;;;21.70;99.90;;;;;;5083796;28;20112;-69
2022/05/12 11:01:54;;;;;;;;;;;21.80;99.90;;;;;;5083494;28;19943;-69
2022/05/12 11:04:22;;;;;;;;;;;21.80;99.90;;;;;;5083333;28;19920;-68
2022/05/12 11:06:52;;;;;;;;;;;21.60;99.90;;;;;;5082564;28;19935;-68
2022/05/12 11:09:23;;;;;;;;;;;21.50;99.90;;;;;;5082945;28;19920;-68
2022/05/12 11:11:50;;;;;;;;;;;21.50;99.90;;;;;;5083259;28;19962;-69
2022/05/12 11:14:18;;;;;;;;;;;21.60;99.90;;;;;;5083034;28;19925;-70
2022/05/12 11:16:49;;;;;;;;;;;21.70;99.90;;;;;;5082745;28;19924;-69
2022/05/12 11:19:16;;;;;;;;;;;21.90;99.90;;;;;;5065370;28;19929;-69
2022/05/12 11:21:46;;;;;;;;;;;22.00;99.90;;;;;;5058331;28;19921;-69
2022/05/12 11:24:19;;;;;;;;;;;21.90;99.90;;;;;;5062949;28;19920;-69
2022/05/12 11:26:53;;;;;;;;;;;22.00;99.90;;;;;;5065062;28;19939;-68
2022/05/12 11:32:17;;;;;;;;;;;22.20;99.90;;;;;;5062926;28;20275;-69
2022/05/12 11:34:46;;;;;;;;;;;22.30;99.90;;;;;;5062741;28;19920;-71
2022/05/12 11:37:33;;;;;;;;;;;22.60;99.90;;;;;;5062443;28;19921;-71
2022/05/12 11:40:01;;;;;;;;;;;22.90;99.90;;;;;;5081274;22;19943;-69
2022/05/12 11:44:23;;;;;;;;;;;23.30;99.90;;;;;;5063376;28;19927;-69
2022/05/12 11:45:30;;;;;;;;;;;23.50;99.90;;;;;;5062568;28;19928;-68
2022/05/12 11:48:05;;;;;;;;;;;23.80;99.90;;;;;;5077279;28;20226;-68
2022/05/12 11:50:52;;;;;;;;;;;23.80;99.90;;;;;;5082819;28;19925;-68
2022/05/12 11:53:20;;;;;;;;;;;23.60;99.90;;;;;;5082822;28;20150;-68
2022/05/12 11:55:55;;;;;;;;;;;23.70;99.90;;;;;;5082064;28;19921;-69
2022/05/12 11:58:31;;;;;;;;;;;24.00;99.90;;;;;;5082801;28;19920;-69
2022/05/12 12:00:59;;;;;;;;;;;24.10;99.90;;;;;;5082588;28;20260;-68
2022/05/12 12:03:36;;;;;;;;;;;24.30;99.90;;;;;;5082869;28;20131;-68
2022/05/12 12:06:04;;;;;;;;;;;24.30;99.90;;;;;;5085443;28;19924;-69
2022/05/12 12:08:44;;;;;;;;;;;24.10;99.90;;;;;;5086478;28;19943;-69
2022/05/12 12:11:25;;;;;;;;;;;24.10;99.90;;;;;;5086600;28;19932;-69
2022/05/12 12:13:53;;;;;;;;;;;24.20;99.90;;;;;;5086365;28;19921;-69
2022/05/12 12:16:21;;;;;;;;;;;24.30;99.90;;;;;;5085663;28;19920;-68
2022/05/12 12:19:03;;;;;;;;;;;24.20;99.90;;;;;;5086109;28;19929;-68
2022/05/12 12:21:48;;;;;;;;;;;24.30;99.90;;;;;;5082424;28;19921;-68
2022/05/12 12:24:33;;;;;;;;;;;24.10;99.90;;;;;;5086259;28;19920;-69
2022/05/12 12:27:17;;;;;;;;;;;24.00;99.90;;;;;;5085468;28;19927;-68
2022/05/12 12:29:46;;;;;;;;;;;23.80;99.90;;;;;;5086080;28;19943;-69
2022/05/12 12:32:25;;;;;;;;;;;24.00;99.90;;;;;;5086144;28;20207;-68
2022/05/12 12:34:52;;;;;;;;;;;24.20;99.90;;;;;;5086226;28;20122;-69
2022/05/12 12:37:34;;;;;;;;;;;24.20;99.90;;;;;;5084907;28;20123;-68
2022/05/12 12:40:01;;;;;;;;;;;24.10;99.90;;;;;;5085835;28;19920;-68
2022/05/12 12:42:39;;;;;;;;;;;24.00;99.90;;;;;;5086074;28;19921;-69
2022/05/12 12:45:10;;;;;;;;;;;24.10;99.90;;;;;;5086125;28;20184;-69
2022/05/12 12:47:43;;;;;;;;;;;24.30;99.90;;;;;;5085985;28;19927;-68
2022/05/12 12:50:24;;;;;;;;;;;24.40;99.90;;;;;;5086060;28;19935;-68
2022/05/12 12:52:56;;;;;;;;;;;24.50;99.90;;;;;;5085266;28;19921;-68
2022/05/12 12:58:13;;;;;;;;;;;24.70;99.90;;;;;;5085624;28;20158;-69
2022/05/12 13:00:40;;;;;;;;;;;25.00;99.90;;;;;;5085904;28;19943;-69
2022/05/12 13:03:09;;;;;;;;;;;25.20;99.90;;;;;;5085490;28;19920;-69
2022/05/12 13:05:37;;;;;;;;;;;25.20;99.90;;;;;;5084277;28;20063;-67
2022/05/12 13:08:05;;;;;;;;;;;25.20;99.90;;;;;;5084998;28;19943;-68
2022/05/12 13:10:33;;;;;;;;;;;25.10;99.90;;;;;;5085224;28;19920;-67
2022/05/12 13:13:00;;;;;;;;;;;25.10;99.90;;;;;;5085690;28;20319;-66
2022/05/12 13:15:27;;;;;;;;;;;25.10;99.90;;;;;;5084136;28;19920;-67
2022/05/12 13:17:58;;;;;;;;;;;25.10;99.90;;;;;;5084973;28;19928;-66
2022/05/12 13:20:26;;;;;;;;;;;25.20;99.90;;;;;;5085381;28;20122;-67
2022/05/12 13:22:55;;;;;;;;;;;25.60;99.90;;;;;;5082750;28;20010;-66
2022/05/12 13:25:23;;;;;;;;;;;26.00;99.90;;;;;;5084616;28;19924;-66
2022/05/12 13:27:50;;;;;;;;;;;26.10;99.00;;;;;;5084848;28;19920;-66
2022/05/12 13:30:18;;;;;;;;;;;25.60;98.80;;;;;;5085173;28;19995;-68
2022/05/12 13:32:46;;;;;;;;;;;25.30;99.30;;;;;;5085224;28;19925;-69
2022/05/12 13:35:17;;;;;;;;;;;25.20;99.90;;;;;;5084673;28;19926;-68
2022/05/12 13:37:45;;;;;;;;;;;25.30;99.90;;;;;;5084602;28;20154;-71
2022/05/12 13:40:32;;;;;;;;;;;25.30;99.90;;;;;;5064079;28;20108;-68
2022/05/12 13:42:58;;;;;;;;;;;25.30;99.70;;;;;;5064564;28;19921;-68
2022/05/12 13:45:26;;;;;;;;;;;25.20;99.90;;;;;;5055040;28;20203;-69
2022/05/12 13:47:55;;;;;;;;;;;25.30;99.90;;;;;;5063735;28;19925;-69
2022/05/12 13:50:34;;;;;;;;;;;25.60;99.90;;;;;;5063011;28;20208;-69
2022/05/12 13:53:02;;;;;;;;;;;25.90;99.50;;;;;;5062838;28;20216;-69
2022/05/12 13:55:29;;;;;;;;;;;25.90;99.90;;;;;;5061742;28;19928;-68
2022/05/12 13:58:09;;;;;;;;;;;25.70;98.90;;;;;;5084522;28;19920;-68
2022/05/12 14:00:37;;;;;;;;;;;25.50;99.20;;;;;;5071288;28;19920;-69
2022/05/12 14:03:15;;;;;;;;;;;25.20;99.50;;;;;;5057925;28;19928;-69
2022/05/12 14:05:43;;;;;;;;;;;25.40;99.80;;;;;;5046299;28;19925;-68
2022/05/12 14:08:13;;;;;;;;;;;25.60;99.60;;;;;;5068287;28;19934;-69
2022/05/12 14:10:41;;;;;;;;;;;25.60;99.70;;;;;;5044041;28;20143;-69
2022/05/12 14:21:35;;;;;;;;;;;26.70;99.30;;;;;;5061221;28;19962;-69
2022/05/12 14:24:01;;;;;;;;;;;26.90;98.90;;;;;;5063956;28;19929;-69
2022/05/12 14:26:28;;;;;;;;;;;26.80;98.10;;;;;;5063372;28;19920;-69
2022/05/12 14:28:54;;;;;;;;;;;26.80;98.40;;;;;;5063738;28;19929;-69
2022/05/12 14:31:23;;;;;;;;;;;26.60;98.30;;;;;;5070041;28;19920;-69
2022/05/12 14:33:50;;;;;;;;;;;26.30;98.00;;;;;;5073035;28;19960;-68
2022/05/12 14:36:16;;;;;;;;;;;26.10;99.00;;;;;;5050545;28;19921;-69
2022/05/12 14:38:46;;;;;;;;;;;25.70;98.70;;;;;;5069482;28;19920;-69
2022/05/12 14:41:12;;;;;;;;;;;25.60;99.30;;;;;;5083727;28;19920;-68
2022/05/12 14:43:39;;;;;;;;;;;25.60;99.30;;;;;;5083258;28;19942;-68
2022/05/12 14:46:05;;;;;;;;;;;25.70;99.90;;;;;;5082638;28;20204;-69
2022/05/12 14:48:32;;;;;;;;;;;25.70;99.50;;;;;;5083316;28;19920;-68
2022/05/12 14:50:59;;;;;;;;;;;25.50;99.30;;;;;;5083455;28;19943;-68
2022/05/12 14:53:26;;;;;;;;;;;25.70;99.90;;;;;;5083565;28;20158;-69
2022/05/12 14:55:54;;;;;;;;;;;25.60;99.30;;;;;;5082573;28;19920;-68
2022/05/12 14:58:20;;;;;;;;;;;25.60;99.70;;;;;;5083148;28;19920;-69